KSJN/SJN METAR and TAF weather

Enter ICAO airport designator
Station Type Date Time Source
KSJN METAR 2020/04/04 11:54 UTC NOAA

KSJN 041154Z AUTO 02004KT 10SM CLR 03/M06 A2993 RMK AO2 SLP087 T00281056 10072 20028 53000


Station Type Date Time Source
KSJN Decoded METAR 2020/04/04 11:54 UTC NOAA

ST JOHNS INDUSTRIAL AIRPRK, AZ, United States (KSJN) 34-31N 109-23W 1745M
Apr 04, 2020 - 07:54 AM EDT / 2020.04.04 1154 UTC
Wind: from the NNE (020 degrees) at 5 MPH (4 KT):0
Visibility: 10 mile(s):0
Sky conditions: clear
Temperature: 37.0 F (2.8 C)
Dew Point: 21.9 F (-5.6 C)
Relative Humidity: 53%
Pressure (altimeter): 29.93 in. Hg (1013 hPa)
Pressure tendency: 0.00 inches (0.0 hPa) higher than three hours ago
ob: KSJN 041154Z AUTO 02004KT 10SM CLR 03/M06 A2993 RMK AO2 SLP087 T00281056 10072 20028 53000
cycle: 12

Station Type Date Time Source
KSJN TAF UTC NOAA

Error!

Example: see airport list